Terminal Aerodrome Forecast
Issued by NWS

Home | Current Version | Previous Version | Text Only | Print | Product List | Glossary On
Versions: 1 2 3 4 5 6 7 8 9 10 11 12 13 14 15 16 17 18 19
000
FTUS42 TJSJ 231700 CCA
TAFJSJ
TAF COR
TJSJ 231747Z 2318/2418 06012G19KT P6SM VCSH SCT030 SCT045 SCT120
      TEMPO 2318/2320 VRB15G23KT 3SM TSRA BKN030CB
     FM232230 12004KT P6SM SCT030 SCT060 SCT120
     FM241300 08012KT P6SM SCT025=

USA.gov is the U.S. government's official web portal to all federal, state and local government web resources and services.